Time;durP1;ratioP1;P1;durP2;ratioP2;P2;SDS_P1;SDS_P2;PMS_P1;PMS_P2;Temp;Humidity;BMP_temperature;BMP_pressure;BME280_temperature;BME280_humidity;BME280_pressure;Samples;Min_cycle;Max_cycle;Signal;HPM_P1;HPM_P2
2021/10/12 00:00:49;;;;;;;29.70;19.80;;;;;;;7.22;84.18;97286.92;116118;1182;69155;-68
2021/10/12 00:03:19;;;;;;;;;;;;;;;7.20;85.12;97280.98;116249;1182;68467;-72
2021/10/12 00:05:50;;;;;;;36.00;22.50;;;;;;;7.20;84.87;97278.48;116273;1183;59510;-72
2021/10/12 00:08:20;;;;;;;33.30;21.00;;;;;;;7.20;84.82;97280.66;116278;1180;59558;-74
2021/10/12 00:10:50;;;;;;;32.00;21.60;;;;;;;7.20;84.94;97279.02;116559;1182;71394;-70
2021/10/12 00:13:19;;;;;;;31.70;21.80;;;;;;;7.22;83.86;97279.36;116430;1182;67644;-73
2021/10/12 00:15:49;;;;;;;30.70;19.90;;;;;;;7.24;84.93;97274.38;116447;1172;69099;-75
2021/10/12 00:18:19;;;;;;;31.30;20.00;;;;;;;7.24;84.67;97275.71;116432;1180;59544;-72
2021/10/12 00:20:48;;;;;;;31.20;20.00;;;;;;;7.25;83.94;97271.53;116423;1182;59546;-71
2021/10/12 00:23:18;;;;;;;29.30;20.80;;;;;;;7.24;83.67;97269.50;116434;1182;71382;-73
2021/10/12 00:25:48;;;;;;;32.00;20.10;;;;;;;7.23;85.23;97268.73;116450;1180;67708;-71
2021/10/12 00:28:18;;;;;;;30.20;20.40;;;;;;;7.23;84.79;97269.90;116371;1182;69189;-75
2021/10/12 00:30:48;;;;;;;28.60;19.10;;;;;;;7.23;84.73;97266.92;116454;1184;59543;-75
2021/10/12 00:33:18;;;;;;;29.20;21.40;;;;;;;7.23;85.17;97266.05;116424;1180;59557;-73
2021/10/12 00:35:49;;;;;;;29.80;20.80;;;;;;;7.23;84.73;97263.21;116397;1182;71293;-74
2021/10/12 00:38:19;;;;;;;35.40;21.30;;;;;;;7.23;84.68;97259.77;116464;1180;67420;-74
2021/10/12 00:40:50;;;;;;;29.80;20.30;;;;;;;7.23;85.08;97258.58;116167;1182;69259;-72
2021/10/12 00:43:27;;;;;;;31.20;19.30;;;;;;;7.21;85.80;97255.39;116177;1181;59564;-73
2021/10/12 00:45:58;;;;;;;27.60;17.80;;;;;;;7.21;84.32;97253.34;116191;1182;59536;-75
2021/10/12 00:48:29;;;;;;;27.80;17.60;;;;;;;7.21;84.80;97250.45;116134;1182;70616;-74
2021/10/12 00:51:00;;;;;;;31.10;20.10;;;;;;;7.19;86.38;97246.39;116157;1181;67414;-70
2021/10/12 00:53:30;;;;;;;;;;;;;;;7.15;86.59;97246.91;116194;1183;68581;-69
2021/10/12 00:56:00;;;;;;;28.00;18.10;;;;;;;7.11;86.37;97244.41;116180;1182;59550;-72
2021/10/12 00:58:30;;;;;;;;;;;;;;;7.09;86.73;97241.13;116247;1181;59551;-70
2021/10/12 01:01:00;;;;;;;29.40;17.80;;;;;;;7.09;86.81;97239.64;116447;1181;71330;-71
2021/10/12 01:03:31;;;;;;;27.60;19.70;;;;;;;7.09;85.85;97234.77;116173;1184;68291;-74
2021/10/12 01:06:02;;;;;;;26.30;17.50;;;;;;;7.10;84.67;97230.65;116454;1182;69325;-74
2021/10/12 01:08:32;;;;;;;27.60;18.60;;;;;;;7.11;85.45;97229.77;115949;1182;59609;-72
2021/10/12 01:11:03;;;;;;;27.20;18.00;;;;;;;7.12;85.86;97227.08;116198;1182;59549;-68
2021/10/12 01:13:33;;;;;;;29.30;19.50;;;;;;;7.11;86.54;97226.37;116029;1183;71962;-72
2021/10/12 01:16:03;;;;;;;35.00;21.00;;;;;;;7.11;86.73;97224.65;116128;1182;68275;-73
2021/10/12 01:18:33;;;;;;;30.20;19.90;;;;;;;7.10;86.45;97219.80;116420;1182;68474;-72
2021/10/12 01:21:03;;;;;;;27.10;19.60;;;;;;;7.09;86.86;97220.13;116440;1182;59492;-70
2021/10/12 01:23:34;;;;;;;28.90;18.20;;;;;;;7.09;86.44;97213.92;116186;1182;59573;-71
2021/10/12 01:26:04;;;;;;;;;;;;;;;7.07;86.72;97212.84;116172;1182;70608;-71
2021/10/12 01:28:35;;;;;;;26.40;17.80;;;;;;;7.04;86.94;97210.31;116209;1182;68195;-73
2021/10/12 01:31:06;;;;;;;;;;;;;;;7.03;87.10;97210.42;116339;1182;69854;-69
2021/10/12 01:33:37;;;;;;;25.60;16.70;;;;;;;7.01;86.78;97209.44;116404;1182;59518;-75
2021/10/12 01:36:07;;;;;;;28.20;17.60;;;;;;;7.01;86.83;97207.86;116435;1180;59542;-75
2021/10/12 01:38:37;;;;;;;26.70;18.10;;;;;;;7.00;87.03;97205.35;116374;1182;69743;-73
2021/10/12 01:41:07;;;;;;;26.90;19.60;;;;;;;7.00;87.51;97202.67;116334;1182;67678;-71
2021/10/12 01:43:38;;;;;;;26.60;20.30;;;;;;;6.99;87.54;97199.46;116406;1183;68478;-73
2021/10/12 01:46:07;;;;;;;27.80;19.10;;;;;;;6.98;87.61;97196.95;116233;1182;59546;-75
2021/10/12 01:48:38;;;;;;;27.50;18.10;;;;;;;6.98;87.51;97194.67;116429;1180;59532;-74
2021/10/12 01:51:08;;;;;;;28.70;18.40;;;;;;;7.00;87.76;97194.02;116223;1184;70700;-71
2021/10/12 01:53:39;;;;;;;31.20;22.00;;;;;;;7.00;87.54;97191.83;116426;1182;67642;-72
2021/10/12 01:56:09;;;;;;;28.90;20.80;;;;;;;7.01;87.47;97188.44;116420;1182;68069;-72
2021/10/12 01:58:39;;;;;;;34.20;23.70;;;;;;;7.01;87.48;97190.71;116165;1183;59512;-75
2021/10/12 02:01:09;;;;;;;32.30;22.20;;;;;;;7.00;86.94;97191.90;116303;1183;59640;-71
2021/10/12 02:03:39;;;;;;;;;;;;;;;6.98;87.38;97191.91;116263;1182;71251;-72
2021/10/12 02:06:09;;;;;;;27.20;19.00;;;;;;;6.97;86.49;97188.79;116348;1183;67602;-75
2021/10/12 02:08:40;;;;;;;32.80;22.40;;;;;;;6.98;87.03;97181.30;116409;1182;69117;-74
2021/10/12 02:11:09;;;;;;;26.50;18.80;;;;;;;7.00;87.85;97176.48;116310;1182;59639;-70
2021/10/12 02:13:39;;;;;;;31.40;19.10;;;;;;;7.01;88.54;97170.73;116392;1182;59551;-74
2021/10/12 02:16:09;;;;;;;;;;;;;;;7.01;88.28;97169.40;116461;1182;71394;-70
2021/10/12 02:18:39;;;;;;;31.40;20.50;;;;;;;6.99;88.21;97168.85;116397;1182;67613;-74
2021/10/12 02:21:09;;;;;;;26.40;18.40;;;;;;;6.98;88.49;97163.14;116340;1182;69234;-70
2021/10/12 02:23:38;;;;;;;26.70;19.00;;;;;;;6.96;88.58;97161.04;116288;1183;59555;-71
2021/10/12 02:26:09;;;;;;;30.50;20.20;;;;;;;6.97;88.41;97161.57;116387;1178;59547;-74
2021/10/12 02:28:40;;;;;;;32.70;23.00;;;;;;;6.97;87.82;97160.63;116316;1182;69654;-74
2021/10/12 02:31:10;;;;;;;30.90;21.90;;;;;;;6.97;87.52;97158.83;116190;1183;67537;-72
2021/10/12 02:33:39;;;;;;;33.10;22.00;;;;;;;6.96;86.70;97155.52;116369;1182;69052;-75
2021/10/12 02:36:10;;;;;;;32.80;22.50;;;;;;;6.94;85.45;97155.45;116326;1184;59579;-68
2021/10/12 02:38:40;;;;;;;33.30;23.50;;;;;;;6.91;85.08;97155.89;116374;1182;59589;-70
2021/10/12 02:41:10;;;;;;;34.70;22.60;;;;;;;6.90;86.34;97154.41;116385;1182;70492;-72
2021/10/12 02:43:40;;;;;;;33.60;21.80;;;;;;;6.91;88.06;97151.25;116378;1182;67638;-72
2021/10/12 02:46:10;;;;;;;36.10;22.80;;;;;;;6.90;88.52;97146.48;116385;1182;68268;-71
2021/10/12 02:48:39;;;;;;;38.90;21.60;;;;;;;6.89;87.70;97139.98;116376;1182;59552;-75
2021/10/12 02:51:09;;;;;;;35.00;23.10;;;;;;;6.88;87.74;97138.09;116421;1182;59505;-72
2021/10/12 02:53:38;;;;;;;36.30;22.80;;;;;;;6.86;88.07;97132.71;116194;1182;71378;-68
2021/10/12 02:56:08;;;;;;;29.50;20.90;;;;;;;6.86;88.31;97129.73;116379;1182;67638;-65
2021/10/12 02:58:38;;;;;;;32.30;22.80;;;;;;;6.87;88.37;97127.12;116324;1182;69156;-69
2021/10/12 03:01:07;;;;;;;27.80;20.60;;;;;;;6.86;88.50;97121.95;116383;1182;59557;-66
2021/10/12 03:03:38;;;;;;;28.90;20.00;;;;;;;6.85;88.52;97123.38;116414;1182;59513;-69
2021/10/12 03:06:07;;;;;;;32.20;20.10;;;;;;;6.84;88.52;97125.35;116359;1182;71820;-68
2021/10/12 03:08:37;;;;;;;31.80;22.00;;;;;;;6.84;88.24;97128.59;116427;1181;68196;-71
2021/10/12 03:11:12;;;;;;;33.10;21.90;;;;;;;6.83;87.84;97128.20;116383;1182;68087;-65
2021/10/12 03:13:41;;;;;;;36.00;22.80;;;;;;;6.83;86.70;97130.81;116074;1182;59543;-72
2021/10/12 03:16:11;;;;;;;34.10;24.80;;;;;;;6.80;86.52;97130.84;116238;1182;59505;-75
2021/10/12 03:18:42;;;;;;;39.50;26.90;;;;;;;6.77;86.48;97132.01;115990;1182;71413;-74
2021/10/12 03:21:13;;;;;;;41.40;27.00;;;;;;;6.73;86.49;97135.48;116316;1184;68247;-67
2021/10/12 03:23:43;;;;;;;42.10;26.60;;;;;;;6.67;86.54;97132.77;116172;1184;69244;-75
2021/10/12 03:26:12;;;;;;;36.60;24.30;;;;;;;6.63;86.46;97128.57;116387;1182;59561;-69
2021/10/12 03:28:42;;;;;;;33.40;24.20;;;;;;;6.64;87.22;97131.31;116317;1182;59574;-73
2021/10/12 03:31:12;;;;;;;30.40;20.80;;;;;;;6.68;87.12;97124.89;116370;1182;71386;-71
2021/10/12 03:33:42;;;;;;;33.30;20.80;;;;;;;6.72;87.63;97125.20;116270;1184;68464;-69
2021/10/12 03:36:16;;;;;;;34.00;22.20;;;;;;;6.75;87.97;97128.19;116192;1184;68819;-74
2021/10/12 03:38:45;;;;;;;30.40;20.60;;;;;;;6.77;87.90;97120.30;116472;1182;59554;-69
2021/10/12 03:41:14;;;;;;;26.90;21.00;;;;;;;6.79;88.03;97121.58;116430;1181;59513;-69
2021/10/12 03:43:44;;;;;;;31.90;21.60;;;;;;;6.81;88.07;97124.14;116370;1177;71197;-72
2021/10/12 03:46:13;;;;;;;29.50;19.40;;;;;;;6.83;87.84;97122.16;116355;1182;68707;-72
2021/10/12 03:48:43;;;;;;;36.40;24.60;;;;;;;6.85;88.24;97124.72;116357;1182;68424;-69
2021/10/12 03:51:12;;;;;;;31.80;22.60;;;;;;;6.87;87.93;97120.83;116303;1182;59586;-69
2021/10/12 03:53:42;;;;;;;32.80;21.80;;;;;;;6.89;87.43;97121.02;116239;1184;59548;-70
2021/10/12 03:56:11;;;;;;;28.00;19.50;;;;;;;6.90;87.00;97119.33;116404;1182;71375;-69
2021/10/12 03:58:41;;;;;;;30.50;20.10;;;;;;;6.90;87.93;97115.33;116303;1182;68231;-72
2021/10/12 04:01:10;;;;;;;24.80;19.60;;;;;;;6.91;88.18;97118.37;116446;1182;69360;-66
2021/10/12 04:03:40;;;;;;;30.40;19.70;;;;;;;6.91;88.45;97118.44;116376;1182;59622;-68
2021/10/12 04:06:10;;;;;;;32.60;21.70;;;;;;;6.92;87.79;97114.79;116376;1182;59558;-70
2021/10/12 04:08:39;;;;;;;27.80;19.00;;;;;;;6.93;86.99;97113.52;116462;1182;71284;-70
2021/10/12 04:11:09;;;;;;;26.70;20.20;;;;;;;6.93;87.06;97114.17;116484;1181;67512;-70
2021/10/12 04:13:38;;;;;;;32.60;19.70;;;;;;;6.94;86.78;97113.18;116455;1182;68401;-71
2021/10/12 04:16:07;;;;;;;31.50;20.70;;;;;;;6.95;87.08;97113.02;116349;1182;59633;-66
2021/10/12 04:18:37;;;;;;;31.80;18.60;;;;;;;6.96;86.81;97109.54;116418;1181;59551;-70
2021/10/12 04:21:06;;;;;;;27.30;17.80;;;;;;;6.95;87.07;97107.35;116088;1182;72041;-73
2021/10/12 04:23:37;;;;;;;31.00;19.90;;;;;;;6.94;87.11;97105.16;116006;1175;68318;-66
2021/10/12 04:26:10;;;;;;;29.90;21.10;;;;;;;6.94;87.15;97100.21;116300;1182;68242;-73
2021/10/12 04:28:41;;;;;;;26.20;18.90;;;;;;;6.94;87.16;97103.05;116259;1182;59535;-65
2021/10/12 04:31:11;;;;;;;27.40;19.40;;;;;;;6.94;87.04;97100.14;116316;1181;59551;-65
2021/10/12 04:33:40;;;;;;;27.10;19.90;;;;;;;6.94;87.17;97096.91;116224;1182;72104;-72
2021/10/12 04:36:10;;;;;;;33.10;22.80;;;;;;;6.94;87.17;97097.30;116235;1182;67658;-65
2021/10/12 04:38:40;;;;;;;30.00;20.40;;;;;;;6.95;86.77;97094.93;116247;1182;68723;-73
2021/10/12 04:41:10;;;;;;;26.40;20.10;;;;;;;6.95;86.67;97092.89;116091;1184;59555;-72
2021/10/12 04:43:41;;;;;;;28.90;19.70;;;;;;;6.95;86.91;97085.86;116277;1182;59554;-68
2021/10/12 04:46:13;;;;;;;31.00;20.50;;;;;;;6.96;87.09;97087.13;116283;1182;71425;-69
2021/10/12 04:48:44;;;;;;;29.60;20.70;;;;;;;6.96;86.88;97090.17;116256;1182;68378;-68
2021/10/12 04:51:13;;;;;;;27.00;19.70;;;;;;;6.98;86.71;97096.13;116316;1182;69717;-72
2021/10/12 04:53:43;;;;;;;34.40;22.90;;;;;;;6.97;87.35;97092.35;116161;1184;59555;-73
2021/10/12 04:56:13;;;;;;;31.00;21.00;;;;;;;7.00;87.15;97090.90;116290;1182;59574;-66
2021/10/12 04:58:43;;;;;;;33.50;21.90;;;;;;;7.01;87.18;97087.91;116289;1182;70629;-69
2021/10/12 05:01:12;;;;;;;28.30;20.50;;;;;;;7.03;86.65;97083.86;116304;1181;68320;-71
2021/10/12 05:03:42;;;;;;;26.50;19.50;;;;;;;7.05;86.44;97083.02;116129;1182;69353;-74
2021/10/12 05:06:11;;;;;;;32.80;22.00;;;;;;;7.06;86.82;97089.05;116410;1181;59957;-72
2021/10/12 05:08:41;;;;;;;30.70;22.20;;;;;;;7.06;86.76;97090.63;116388;1182;59529;-66
2021/10/12 05:11:10;;;;;;;34.20;23.40;;;;;;;7.05;86.35;97092.39;116367;1173;70538;-72
2021/10/12 05:13:39;;;;;;;33.10;24.50;;;;;;;7.04;85.50;97090.36;116456;1182;68470;-73
2021/10/12 05:16:13;;;;;;;32.60;24.00;;;;;;;7.01;85.79;97091.05;116399;1181;68543;-72
2021/10/12 05:18:43;;;;;;;26.50;20.40;;;;;;;7.02;85.85;97093.09;116396;1182;59538;-73
2021/10/12 05:21:14;;;;;;;39.60;25.10;;;;;;;7.00;87.16;97091.67;116414;1182;59539;-74
2021/10/12 05:23:43;;;;;;;37.20;24.30;;;;;;;7.00;87.60;97090.59;116434;1182;71722;-74
2021/10/12 05:26:12;;;;;;;37.40;25.10;;;;;;;7.01;86.83;97095.23;116398;1182;67890;-72
2021/10/12 05:28:43;;;;;;;37.10;23.60;;;;;;;7.02;85.94;97093.23;116347;1182;69454;-73
2021/10/12 05:31:12;;;;;;;35.70;24.90;;;;;;;7.04;85.64;97092.96;116486;1177;59570;-69
2021/10/12 05:33:44;;;;;;;33.90;22.80;;;;;;;7.04;86.08;97093.91;116485;1181;59536;-66
2021/10/12 05:36:14;;;;;;;31.30;23.50;;;;;;;7.07;86.91;97092.66;116268;1181;71375;-69
2021/10/12 05:38:46;;;;;;;38.40;25.60;;;;;;;7.10;86.25;97097.86;116330;1182;68315;-73
2021/10/12 05:41:16;;;;;;;38.60;24.20;;;;;;;7.10;86.53;97097.31;116060;1181;68482;-67
2021/10/12 05:43:46;;;;;;;29.10;20.30;;;;;;;7.11;86.49;97096.58;116265;1182;59561;-67
2021/10/12 05:46:15;;;;;;;34.90;24.20;;;;;;;7.12;86.79;97096.30;115987;1184;59592;-71
2021/10/12 05:48:45;;;;;;;29.80;21.80;;;;;;;7.16;86.17;97094.17;116083;1184;72873;-74
2021/10/12 05:51:18;;;;;;;30.60;22.00;;;;;;;7.19;86.62;97097.04;116443;1181;67651;-74
2021/10/12 05:53:50;;;;;;;28.70;21.90;;;;;;;7.22;86.82;97097.60;116363;1183;69465;-73
2021/10/12 05:58:51;;;;;;;33.70;25.60;;;;;;;7.27;85.64;97097.73;116313;1182;59586;-74
2021/10/12 06:01:24;;;;;;;37.60;24.70;;;;;;;7.28;85.62;97096.13;116409;1182;71463;-74
2021/10/12 06:03:53;;;;;;;35.70;23.90;;;;;;;7.31;85.21;97098.05;116437;1182;68005;-73
2021/10/12 06:06:22;;;;;;;37.00;27.10;;;;;;;7.33;86.03;97098.61;116510;1177;69290;-71
2021/10/12 06:08:51;;;;;;;36.00;26.40;;;;;;;7.35;85.50;97092.74;116341;1182;59513;-73
2021/10/12 06:11:20;;;;;;;32.10;23.50;;;;;;;7.35;85.23;97092.11;116179;1182;59590;-71
2021/10/12 06:13:51;;;;;;;33.30;23.90;;;;;;;7.35;85.91;97090.79;116307;1182;71192;-72
2021/10/12 06:16:21;;;;;;;33.20;24.10;;;;;;;7.40;86.83;97079.83;116400;1181;69102;-71
2021/10/12 06:18:50;;;;;;;33.40;24.10;;;;;;;7.45;87.51;97079.93;116261;1182;69293;-74
2021/10/12 06:21:19;;;;;;;35.00;24.90;;;;;;;7.53;86.81;97079.84;116443;1182;59503;-72
2021/10/12 06:23:48;;;;;;;34.30;24.10;;;;;;;7.62;86.33;97077.52;116422;1181;59551;-73
2021/10/12 06:26:16;;;;;;;38.80;25.90;;;;;;;7.68;86.20;97081.45;116485;1181;70664;-69
2021/10/12 06:28:46;;;;;;;36.40;25.00;;;;;;;7.71;85.83;97085.79;116419;1182;67538;-71
2021/10/12 06:31:15;;;;;;;40.90;27.40;;;;;;;7.73;85.13;97092.84;116360;1182;69331;-72
2021/10/12 06:33:44;;;;;;;38.10;26.20;;;;;;;7.77;84.75;97093.79;116445;1181;59543;-75
2021/10/12 06:36:13;;;;;;;35.90;24.80;;;;;;;7.76;84.17;97096.23;116401;1182;59507;-72
2021/10/12 06:38:43;;;;;;;34.10;24.70;;;;;;;7.75;83.53;97091.69;116502;1181;70396;-71
2021/10/12 06:41:12;;;;;;;36.60;24.50;;;;;;;7.74;83.31;97092.19;116464;1181;68397;-72
2021/10/12 06:43:41;;;;;;;39.30;27.60;;;;;;;7.70;83.41;97093.22;116476;1182;69233;-66
2021/10/12 06:46:10;;;;;;;35.60;26.90;;;;;;;7.66;83.98;97092.62;116400;1181;59533;-72
2021/10/12 06:48:39;;;;;;;41.90;27.90;;;;;;;7.65;83.47;97091.69;116434;1182;59548;-73
2021/10/12 06:51:08;;;;;;;41.20;26.10;;;;;;;7.66;83.13;97089.54;116423;1181;71310;-68
2021/10/12 06:53:57;;;;;;;37.40;26.20;;;;;;;7.63;83.76;97087.48;116475;1182;67740;-74
2021/10/12 06:56:27;;;;;;;42.40;27.40;;;;;;;7.67;84.10;97089.29;116398;1182;69546;-72
2021/10/12 06:58:56;;;;;;;40.60;25.40;;;;;;;7.69;84.99;97090.49;116467;1182;59538;-72
2021/10/12 07:01:24;;;;;;;43.50;27.00;;;;;;;7.71;84.66;97090.27;116485;1182;59951;-72
2021/10/12 07:03:53;;;;;;;40.20;27.20;;;;;;;7.73;84.39;97094.34;116475;1182;70612;-74
2021/10/12 07:06:23;;;;;;;38.70;27.90;;;;;;;7.73;83.53;97101.50;116422;1182;67610;-70
2021/10/12 07:08:51;;;;;;;38.50;26.80;;;;;;;7.68;83.49;97098.77;116439;1182;69298;-71
2021/10/12 07:11:20;;;;;;;41.20;26.10;;;;;;;7.64;83.09;97097.06;116523;1182;59543;-70
2021/10/12 07:13:49;;;;;;;41.50;28.60;;;;;;;7.57;83.72;97096.44;116396;1172;59544;-71
2021/10/12 07:16:21;;;;;;;38.80;28.30;;;;;;;7.54;83.61;97098.46;116549;1181;70390;-68
2021/10/12 07:18:50;;;;;;;38.20;28.50;;;;;;;7.53;83.20;97101.34;116453;1177;68339;-70
2021/10/12 07:21:20;;;;;;;37.60;27.70;;;;;;;7.48;83.24;97099.30;116531;1182;69190;-69
2021/10/12 07:23:48;;;;;;;40.70;28.40;;;;;;;7.46;83.44;97099.59;116511;1181;59555;-73
2021/10/12 07:26:18;;;;;;;44.40;29.40;;;;;;;7.44;84.29;97105.55;116401;1182;59550;-73
2021/10/12 07:28:47;;;;;;;40.80;27.90;;;;;;;7.43;83.62;97097.68;116343;1182;71706;-72
2021/10/12 07:31:17;;;;;;;42.80;27.60;;;;;;;7.44;84.34;97100.20;116371;1182;68292;-72
2021/10/12 07:33:46;;;;;;;117.40;72.30;;;;;;;7.48;84.35;97091.35;116386;1182;69295;-73
2021/10/12 07:36:16;;;;;;;52.20;38.90;;;;;;;7.53;84.75;97093.36;116533;1182;59564;-68
2021/10/12 07:38:45;;;;;;;41.30;28.00;;;;;;;7.55;84.75;97095.63;116278;1182;59501;-73
2021/10/12 07:41:28;;;;;;;44.30;28.80;;;;;;;7.55;85.04;97094.99;116426;1182;71513;-73
2021/10/12 07:43:58;;;;;;;38.30;28.00;;;;;;;7.57;84.72;97090.22;116405;1173;68394;-70
2021/10/12 07:46:27;;;;;;;45.30;31.20;;;;;;;7.62;84.70;97088.92;116389;1182;69266;-70
2021/10/12 07:48:58;;;;;;;38.40;28.20;;;;;;;7.69;84.50;97090.18;116461;1181;59494;-67
2021/10/12 07:51:41;;;;;;;41.70;29.20;;;;;;;7.74;85.31;97092.19;116137;1182;59966;-72
2021/10/12 07:54:18;;;;;;;40.30;30.90;;;;;;;7.78;84.53;97096.75;116336;1182;72074;-71
2021/10/12 07:56:48;;;;;;;48.30;29.80;;;;;;;7.76;84.09;97091.84;116300;1182;68879;-68
2021/10/12 07:59:18;;;;;;;43.40;28.50;;;;;;;7.78;83.91;97094.23;116234;1184;68376;-70
2021/10/12 08:01:47;;;;;;;43.00;32.20;;;;;;;7.74;84.11;97093.70;116235;1182;59548;-74
2021/10/12 08:04:16;;;;;;;51.40;33.80;;;;;;;7.69;84.01;97097.48;116381;1182;59542;-71
2021/10/12 08:06:45;;;;;;;41.20;30.40;;;;;;;7.63;84.36;97089.84;116391;1182;71492;-70
2021/10/12 08:09:16;;;;;;;43.10;31.10;;;;;;;7.59;84.68;97084.35;116384;1182;68209;-74
2021/10/12 08:11:45;;;;;;;44.00;33.00;;;;;;;7.62;84.34;97080.11;116201;1182;69287;-72
2021/10/12 08:14:18;;;;;;;41.70;30.10;;;;;;;7.64;84.52;97079.51;116118;1183;59551;-67
2021/10/12 08:16:47;;;;;;;42.20;27.60;;;;;;;7.65;84.36;97078.21;116310;1182;59587;-75
2021/10/12 08:19:16;;;;;;;46.00;32.00;;;;;;;7.69;84.43;97076.16;116403;1182;70657;-75
2021/10/12 08:21:46;;;;;;;43.70;31.20;;;;;;;7.64;85.07;97075.25;116354;1182;67429;-70
2021/10/12 08:24:17;;;;;;;40.00;29.80;;;;;;;7.65;85.91;97072.64;116235;1182;69278;-69
2021/10/12 08:26:50;;;;;;;44.20;32.20;;;;;;;7.66;85.97;97067.73;116101;1184;59542;-72
2021/10/12 08:29:19;;;;;;;44.10;30.30;;;;;;;7.68;85.95;97067.30;116184;1182;59622;-68
2021/10/12 08:31:49;;;;;;;40.20;29.40;;;;;;;7.66;85.68;97066.53;116381;1182;71360;-74
2021/10/12 08:34:18;;;;;;;34.50;25.20;;;;;;;7.67;85.78;97066.77;116356;1182;67697;-77
2021/10/12 08:36:47;;;;;;;41.60;29.90;;;;;;;7.67;86.43;97063.21;116362;1182;69149;-66
2021/10/12 08:39:18;;;;;;;34.30;26.60;;;;;;;7.67;86.23;97063.27;116253;1182;59972;-75
2021/10/12 08:41:51;;;;;;;32.60;26.10;;;;;;;7.69;86.02;97059.30;116291;1182;59548;-74
2021/10/12 08:44:20;;;;;;;37.60;25.10;;;;;;;7.71;86.17;97062.02;116338;1182;71149;-70
2021/10/12 08:46:50;;;;;;;34.90;27.00;;;;;;;7.73;85.45;97065.76;116224;1181;68421;-72
2021/10/12 08:49:21;;;;;;;27.40;22.20;;;;;;;7.71;85.34;97066.58;116280;1181;69119;-74
2021/10/12 08:51:50;;;;;;;29.10;21.10;;;;;;;7.70;85.80;97072.36;116398;1182;59558;-72
2021/10/12 08:54:19;;;;;;;38.30;28.10;;;;;;;7.68;85.74;97072.71;116374;1182;59602;-74
2021/10/12 08:56:48;;;;;;;37.40;25.70;;;;;;;7.70;86.28;97070.15;116426;1182;70633;-72
2021/10/12 08:59:17;;;;;;;30.70;23.50;;;;;;;7.71;85.80;97069.10;116393;1182;68580;-72
2021/10/12 09:02:03;;;;;;;29.60;23.40;;;;;;;7.74;86.15;97064.78;116405;1182;69272;-69
2021/10/12 09:04:39;;;;;;;32.70;25.60;;;;;;;7.81;86.15;97070.92;116243;1182;59540;-72
2021/10/12 09:07:18;;;;;;;26.50;21.10;;;;;;;7.91;85.89;97063.35;116511;1181;59553;-73
2021/10/12 09:09:48;;;;;;;26.20;18.50;;;;;;;8.00;84.83;97061.61;116369;1182;70840;-74
2021/10/12 09:12:18;;;;;;;32.50;21.10;;;;;;;8.08;84.51;97059.52;116382;1182;67661;-69
2021/10/12 09:14:56;;;;;;;27.50;19.80;;;;;;;8.14;84.39;97060.23;116462;1182;69113;-74
2021/10/12 09:17:51;;;;;;;27.40;22.10;;;;;;;8.19;84.62;97056.63;116386;1182;59497;-73
2021/10/12 09:20:22;;;;;;;26.30;20.60;;;;;;;8.28;84.80;97050.70;116415;1181;59539;-71
2021/10/12 09:23:12;;;;;;;26.50;21.10;;;;;;;8.32;84.85;97054.83;116314;1182;71391;-73
2021/10/12 09:25:44;;;;;;;24.60;19.20;;;;;;;8.36;84.67;97051.52;116403;1182;68817;-74
2021/10/12 09:28:32;;;;;;;23.90;18.20;;;;;;;8.36;84.51;97043.70;116201;1182;69911;-75
2021/10/12 09:31:01;;;;;;;21.90;16.90;;;;;;;8.38;84.54;97046.89;116459;1181;59538;-70
2021/10/12 09:33:30;;;;;;;24.40;18.50;;;;;;;8.43;84.51;97046.61;116412;1182;59609;-71
2021/10/12 09:35:59;;;;;;;24.10;17.70;;;;;;;8.49;84.20;97041.17;116418;1182;71923;-71
2021/10/12 09:38:28;;;;;;;22.60;17.70;;;;;;;8.50;84.12;97038.45;116462;1181;68216;-71
2021/10/12 09:41:07;;;;;;;19.90;16.90;;;;;;;8.52;83.90;97037.22;116470;1182;68485;-73
2021/10/12 09:43:36;;;;;;;22.60;16.30;;;;;;;8.56;83.64;97036.85;116535;1181;59545;-74
2021/10/12 09:46:21;;;;;;;25.90;20.30;;;;;;;8.58;83.52;97036.23;116410;1182;59567;-72
2021/10/12 09:48:50;;;;;;;20.30;14.90;;;;;;;8.58;83.07;97036.02;116476;1182;70603;-74
2021/10/12 09:51:19;;;;;;;21.00;15.60;;;;;;;8.57;83.29;97036.73;116196;1183;68424;-75
2021/10/12 09:53:48;;;;;;;20.00;16.00;;;;;;;8.58;83.30;97032.46;116215;1184;68975;-72
2021/10/12 09:56:17;;;;;;;18.80;15.10;;;;;;;8.65;82.79;97030.01;116396;1184;59976;-69
2021/10/12 09:58:48;;;;;;;18.20;15.30;;;;;;;8.68;82.85;97026.74;116348;1182;59564;-75
2021/10/12 10:01:18;;;;;;;24.60;16.20;;;;;;;8.78;83.65;97025.74;116461;1182;70007;-75
2021/10/12 10:03:48;;;;;;;21.50;16.90;;;;;;;8.91;83.80;97020.18;116407;1181;69059;-73
2021/10/12 10:06:21;;;;;;;23.30;16.70;;;;;;;9.05;82.69;97020.39;116455;1182;69232;-71
2021/10/12 10:08:53;;;;;;;23.00;17.50;;;;;;;9.14;81.85;97015.92;116495;1182;59558;-70
2021/10/12 10:11:38;;;;;;;21.50;16.50;;;;;;;9.23;82.10;97012.27;116361;1182;59553;-72
2021/10/12 10:14:09;;;;;;;20.10;16.20;;;;;;;9.35;81.84;97013.56;116423;1182;70676;-70
2021/10/12 10:16:51;;;;;;;22.00;16.00;;;;;;;9.42;81.19;97007.04;116489;1182;67740;-74
2021/10/12 10:19:24;;;;;;;24.40;16.30;;;;;;;9.44;80.76;97006.27;116445;1181;68508;-72
2021/10/12 10:21:53;;;;;;;21.70;15.80;;;;;;;9.49;81.04;96999.62;116453;1182;59555;-67
2021/10/12 10:24:48;;;;;;;22.90;17.20;;;;;;;9.52;80.76;96997.15;116248;1181;59647;-66
2021/10/12 10:27:35;;;;;;;24.80;17.50;;;;;;;9.53;80.31;96997.46;116536;1181;71786;-72
2021/10/12 10:30:25;;;;;;;23.00;17.00;;;;;;;9.56;80.03;96992.93;116553;1181;67717;-70
2021/10/12 10:33:02;;;;;;;23.50;17.00;;;;;;;9.65;80.24;96987.23;116387;1181;69297;-73
2021/10/12 10:35:47;;;;;;;23.20;16.10;;;;;;;9.75;79.75;96984.00;116363;1182;59522;-70
2021/10/12 10:38:28;;;;;;;23.60;16.40;;;;;;;9.83;79.58;96979.11;116378;1182;59553;-69
2021/10/12 10:41:03;;;;;;;21.60;16.90;;;;;;;9.94;79.49;96976.96;116374;1182;71272;-74
2021/10/12 10:44:01;;;;;;;24.50;17.90;;;;;;;10.04;79.28;96975.22;116495;1181;68361;-71
2021/10/12 10:46:33;;;;;;;23.30;16.10;;;;;;;10.13;79.13;96978.08;116411;1182;69273;-68
2021/10/12 10:49:13;;;;;;;21.40;16.80;;;;;;;10.17;78.49;96977.50;116519;1182;59539;-71
2021/10/12 10:52:02;;;;;;;21.80;16.50;;;;;;;10.26;78.71;96976.23;116484;1181;59571;-74
2021/10/12 10:54:42;;;;;;;24.30;16.30;;;;;;;10.26;78.58;96972.74;116541;1182;71394;-69
2021/10/12 10:57:21;;;;;;;22.40;16.70;;;;;;;10.30;78.30;96967.43;116509;1181;68863;-72
2021/10/12 11:00:11;;;;;;;21.60;16.00;;;;;;;10.41;78.31;96965.46;116379;1182;68352;-74
2021/10/12 11:02:45;;;;;;;23.70;16.60;;;;;;;10.36;77.47;96959.41;116372;1181;59542;-70
2021/10/12 11:05:40;;;;;;;23.80;15.60;;;;;;;10.41;77.84;96960.32;116369;1181;59550;-73
2021/10/12 11:08:21;;;;;;;21.30;14.30;;;;;;;10.48;76.66;96960.45;116294;1182;70606;-73
2021/10/12 11:10:57;;;;;;;19.70;14.50;;;;;;;10.48;77.10;96956.61;116050;1184;68196;-69
2021/10/12 11:13:29;;;;;;;24.20;15.10;;;;;;;10.44;77.22;96949.94;116317;1182;69822;-74
2021/10/12 11:15:59;;;;;;;23.30;15.40;;;;;;;10.35;77.32;96944.02;116408;1181;59478;-74
2021/10/12 11:18:29;;;;;;;22.10;15.10;;;;;;;10.23;77.67;96935.75;116435;1182;59583;-75
2021/10/12 11:21:02;;;;;;;24.20;16.30;;;;;;;10.12;77.66;96931.71;116374;1181;71542;-75
2021/10/12 11:23:40;;;;;;;22.80;16.40;;;;;;;9.95;78.35;96931.98;116414;1182;67418;-73
2021/10/12 11:26:16;;;;;;;21.60;15.80;;;;;;;9.75;79.12;96924.36;116276;1182;69290;-75
2021/10/12 11:28:53;;;;;;;22.50;16.10;;;;;;;9.63;79.08;96924.83;116432;1182;59634;-71
2021/10/12 11:31:27;;;;;;;22.20;17.60;;;;;;;9.49;79.99;96926.34;116329;1182;59503;-74
2021/10/12 11:33:58;;;;;;;37.20;29.80;;;;;;;9.43;79.50;96927.95;116433;1182;71412;-72
2021/10/12 11:36:30;;;;;;;32.10;26.90;;;;;;;9.38;79.67;96926.23;116247;1182;67692;-72
2021/10/12 11:39:02;;;;;;;16.70;12.90;;;;;;;9.31;79.67;96930.71;116404;1181;68782;-74
2021/10/12 11:41:37;;;;;;;20.20;15.80;;;;;;;9.23;79.34;96931.76;116202;1184;59559;-72